sensor_id;sensor_type;location;lat;lon;timestamp;P1;durP1;ratioP1;P2;durP2;ratioP2
80748;SDS011;70145;53.746;9.970;2023-12-28T00:00:22;2.57;;;1.00;;
80748;SDS011;70145;53.746;9.970;2023-12-28T00:05:41;2.78;;;1.23;;
80748;SDS011;70145;53.746;9.970;2023-12-28T00:08:06;2.43;;;1.50;;
80748;SDS011;70145;53.746;9.970;2023-12-28T00:10:31;2.03;;;1.13;;
80748;SDS011;70145;53.746;9.970;2023-12-28T00:12:57;1.95;;;1.10;;
80748;SDS011;70145;53.746;9.970;2023-12-28T00:15:22;2.92;;;1.20;;
80748;SDS011;70145;53.746;9.970;2023-12-28T00:17:47;1.50;;;0.90;;
80748;SDS011;70145;53.746;9.970;2023-12-28T00:20:13;2.05;;;0.85;;
80748;SDS011;70145;53.746;9.970;2023-12-28T00:22:38;2.92;;;1.20;;
80748;SDS011;70145;53.746;9.970;2023-12-28T00:25:04;2.63;;;1.20;;
80748;SDS011;70145;53.746;9.970;2023-12-28T00:27:30;2.58;;;1.58;;
80748;SDS011;70145;53.746;9.970;2023-12-28T00:29:55;2.10;;;1.10;;
80748;SDS011;70145;53.746;9.970;2023-12-28T00:32:21;1.25;;;1.05;;
80748;SDS011;70145;53.746;9.970;2023-12-28T00:34:46;2.40;;;1.20;;
80748;SDS011;70145;53.746;9.970;2023-12-28T00:37:11;1.73;;;1.27;;
80748;SDS011;70145;53.746;9.970;2023-12-28T00:39:37;3.03;;;1.40;;
80748;SDS011;70145;53.746;9.970;2023-12-28T00:42:03;1.50;;;0.98;;
80748;SDS011;70145;53.746;9.970;2023-12-28T00:44:29;2.80;;;1.60;;
80748;SDS011;70145;53.746;9.970;2023-12-28T00:46:54;4.17;;;1.40;;
80748;SDS011;70145;53.746;9.970;2023-12-28T00:49:19;3.47;;;1.23;;
80748;SDS011;70145;53.746;9.970;2023-12-28T00:51:45;1.63;;;1.40;;
80748;SDS011;70145;53.746;9.970;2023-12-28T00:54:10;8.63;;;1.80;;
80748;SDS011;70145;53.746;9.970;2023-12-28T00:56:35;3.40;;;1.23;;
80748;SDS011;70145;53.746;9.970;2023-12-28T00:59:00;1.60;;;1.00;;
80748;SDS011;70145;53.746;9.970;2023-12-28T01:01:27;1.77;;;0.93;;
80748;SDS011;70145;53.746;9.970;2023-12-28T01:03:55;2.97;;;1.35;;
80748;SDS011;70145;53.746;9.970;2023-12-28T01:06:20;4.65;;;2.08;;
80748;SDS011;70145;53.746;9.970;2023-12-28T01:08:53;3.28;;;1.08;;
80748;SDS011;70145;53.746;9.970;2023-12-28T01:11:19;3.33;;;1.40;;
80748;SDS011;70145;53.746;9.970;2023-12-28T01:13:44;3.08;;;1.40;;
80748;SDS011;70145;53.746;9.970;2023-12-28T01:16:12;1.63;;;1.02;;
80748;SDS011;70145;53.746;9.970;2023-12-28T01:18:37;2.05;;;1.15;;
80748;SDS011;70145;53.746;9.970;2023-12-28T01:21:03;2.00;;;1.13;;
80748;SDS011;70145;53.746;9.970;2023-12-28T01:23:28;3.78;;;1.70;;
80748;SDS011;70145;53.746;9.970;2023-12-28T01:25:55;3.17;;;1.52;;
80748;SDS011;70145;53.746;9.970;2023-12-28T01:28:21;1.95;;;1.25;;
80748;SDS011;70145;53.746;9.970;2023-12-28T01:30:46;1.95;;;1.67;;
80748;SDS011;70145;53.746;9.970;2023-12-28T01:33:12;1.50;;;1.40;;
80748;SDS011;70145;53.746;9.970;2023-12-28T01:35:37;3.55;;;1.20;;
80748;SDS011;70145;53.746;9.970;2023-12-28T01:38:02;4.10;;;1.13;;
80748;SDS011;70145;53.746;9.970;2023-12-28T01:40:28;2.55;;;1.60;;
80748;SDS011;70145;53.746;9.970;2023-12-28T01:42:54;2.65;;;1.23;;
80748;SDS011;70145;53.746;9.970;2023-12-28T01:45:19;1.13;;;0.90;;
80748;SDS011;70145;53.746;9.970;2023-12-28T01:47:45;2.35;;;1.40;;
80748;SDS011;70145;53.746;9.970;2023-12-28T01:50:12;3.78;;;2.05;;
80748;SDS011;70145;53.746;9.970;2023-12-28T01:52:37;2.75;;;1.30;;
80748;SDS011;70145;53.746;9.970;2023-12-28T01:55:03;2.10;;;1.67;;
80748;SDS011;70145;53.746;9.970;2023-12-28T01:57:30;3.15;;;1.70;;
80748;SDS011;70145;53.746;9.970;2023-12-28T01:59:55;4.25;;;1.60;;
80748;SDS011;70145;53.746;9.970;2023-12-28T02:02:23;2.72;;;1.58;;
80748;SDS011;70145;53.746;9.970;2023-12-28T02:04:49;3.08;;;1.77;;
80748;SDS011;70145;53.746;9.970;2023-12-28T02:07:15;1.85;;;1.45;;
80748;SDS011;70145;53.746;9.970;2023-12-28T02:09:40;4.68;;;1.70;;
80748;SDS011;70145;53.746;9.970;2023-12-28T02:12:06;5.50;;;2.63;;
80748;SDS011;70145;53.746;9.970;2023-12-28T02:14:32;3.10;;;1.85;;
80748;SDS011;70145;53.746;9.970;2023-12-28T02:17:04;3.05;;;1.50;;
80748;SDS011;70145;53.746;9.970;2023-12-28T02:22:31;2.25;;;1.58;;
80748;SDS011;70145;53.746;9.970;2023-12-28T02:27:35;2.08;;;1.42;;
80748;SDS011;70145;53.746;9.970;2023-12-28T02:30:04;2.03;;;1.83;;
80748;SDS011;70145;53.746;9.970;2023-12-28T02:37:50;2.13;;;1.60;;
80748;SDS011;70145;53.746;9.970;2023-12-28T02:40:18;2.25;;;1.58;;
80748;SDS011;70145;53.746;9.970;2023-12-28T02:42:44;2.60;;;2.00;;
80748;SDS011;70145;53.746;9.970;2023-12-28T02:45:09;4.80;;;1.95;;
80748;SDS011;70145;53.746;9.970;2023-12-28T02:47:35;2.25;;;1.70;;
80748;SDS011;70145;53.746;9.970;2023-12-28T02:50:01;3.67;;;1.60;;
80748;SDS011;70145;53.746;9.970;2023-12-28T02:52:26;2.83;;;1.60;;
80748;SDS011;70145;53.746;9.970;2023-12-28T02:54:52;3.13;;;1.50;;
80748;SDS011;70145;53.746;9.970;2023-12-28T02:57:17;3.00;;;1.53;;
80748;SDS011;70145;53.746;9.970;2023-12-28T02:59:46;2.05;;;1.30;;
80748;SDS011;70145;53.746;9.970;2023-12-28T03:02:11;2.85;;;1.80;;
80748;SDS011;70145;53.746;9.970;2023-12-28T03:04:36;1.80;;;1.23;;
80748;SDS011;70145;53.746;9.970;2023-12-28T03:07:02;2.20;;;1.10;;
80748;SDS011;70145;53.746;9.970;2023-12-28T03:09:27;2.78;;;1.20;;
80748;SDS011;70145;53.746;9.970;2023-12-28T03:11:53;3.83;;;1.60;;
80748;SDS011;70145;53.746;9.970;2023-12-28T03:14:18;4.17;;;2.00;;
80748;SDS011;70145;53.746;9.970;2023-12-28T03:16:43;2.65;;;1.90;;
80748;SDS011;70145;53.746;9.970;2023-12-28T03:19:09;2.40;;;1.60;;
80748;SDS011;70145;53.746;9.970;2023-12-28T03:21:38;3.67;;;1.60;;
80748;SDS011;70145;53.746;9.970;2023-12-28T03:24:04;3.22;;;1.60;;
80748;SDS011;70145;53.746;9.970;2023-12-28T03:26:30;3.75;;;1.30;;
80748;SDS011;70145;53.746;9.970;2023-12-28T03:28:55;2.15;;;1.13;;
80748;SDS011;70145;53.746;9.970;2023-12-28T03:31:20;2.53;;;1.47;;
80748;SDS011;70145;53.746;9.970;2023-12-28T03:33:45;3.17;;;1.40;;
80748;SDS011;70145;53.746;9.970;2023-12-28T03:36:17;2.95;;;2.00;;
80748;SDS011;70145;53.746;9.970;2023-12-28T03:38:46;3.13;;;1.55;;
80748;SDS011;70145;53.746;9.970;2023-12-28T03:41:20;3.35;;;2.08;;
80748;SDS011;70145;53.746;9.970;2023-12-28T03:43:46;3.97;;;2.00;;
80748;SDS011;70145;53.746;9.970;2023-12-28T03:46:12;3.90;;;1.60;;
80748;SDS011;70145;53.746;9.970;2023-12-28T03:48:38;4.10;;;1.60;;
80748;SDS011;70145;53.746;9.970;2023-12-28T03:51:04;2.63;;;1.70;;
80748;SDS011;70145;53.746;9.970;2023-12-28T03:53:30;2.97;;;1.55;;
80748;SDS011;70145;53.746;9.970;2023-12-28T03:55:59;2.08;;;1.45;;
80748;SDS011;70145;53.746;9.970;2023-12-28T03:58:24;3.40;;;1.52;;
80748;SDS011;70145;53.746;9.970;2023-12-28T04:00:50;2.33;;;1.38;;
80748;SDS011;70145;53.746;9.970;2023-12-28T04:03:15;2.05;;;1.33;;
80748;SDS011;70145;53.746;9.970;2023-12-28T04:05:41;3.00;;;1.40;;
80748;SDS011;70145;53.746;9.970;2023-12-28T04:08:08;3.42;;;1.67;;
80748;SDS011;70145;53.746;9.970;2023-12-28T04:10:33;3.72;;;1.98;;
80748;SDS011;70145;53.746;9.970;2023-12-28T04:12:59;3.05;;;1.42;;
80748;SDS011;70145;53.746;9.970;2023-12-28T04:15:27;2.10;;;1.35;;
80748;SDS011;70145;53.746;9.970;2023-12-28T04:17:53;3.28;;;1.90;;
80748;SDS011;70145;53.746;9.970;2023-12-28T04:20:18;1.98;;;1.40;;
80748;SDS011;70145;53.746;9.970;2023-12-28T04:22:44;2.05;;;1.10;;
80748;SDS011;70145;53.746;9.970;2023-12-28T04:25:09;3.88;;;2.33;;
80748;SDS011;70145;53.746;9.970;2023-12-28T04:27:35;4.05;;;1.63;;
80748;SDS011;70145;53.746;9.970;2023-12-28T04:30:01;4.63;;;1.63;;
80748;SDS011;70145;53.746;9.970;2023-12-28T04:32:26;2.83;;;1.50;;
80748;SDS011;70145;53.746;9.970;2023-12-28T04:34:52;2.45;;;1.52;;
80748;SDS011;70145;53.746;9.970;2023-12-28T04:37:18;2.38;;;1.58;;
80748;SDS011;70145;53.746;9.970;2023-12-28T04:39:44;3.40;;;1.50;;
80748;SDS011;70145;53.746;9.970;2023-12-28T04:42:09;6.90;;;2.07;;
80748;SDS011;70145;53.746;9.970;2023-12-28T04:44:38;3.37;;;1.73;;
80748;SDS011;70145;53.746;9.970;2023-12-28T04:47:04;4.53;;;2.20;;
80748;SDS011;70145;53.746;9.970;2023-12-28T04:49:29;2.58;;;1.42;;
80748;SDS011;70145;53.746;9.970;2023-12-28T04:51:55;4.53;;;1.60;;
80748;SDS011;70145;53.746;9.970;2023-12-28T04:54:20;3.08;;;1.38;;
80748;SDS011;70145;53.746;9.970;2023-12-28T04:56:46;3.53;;;1.40;;
80748;SDS011;70145;53.746;9.970;2023-12-28T04:59:11;2.95;;;1.77;;
80748;SDS011;70145;53.746;9.970;2023-12-28T05:01:43;2.77;;;1.90;;
80748;SDS011;70145;53.746;9.970;2023-12-28T05:04:09;4.60;;;2.75;;
80748;SDS011;70145;53.746;9.970;2023-12-28T05:06:34;3.72;;;1.48;;
80748;SDS011;70145;53.746;9.970;2023-12-28T05:09:00;2.67;;;1.58;;
80748;SDS011;70145;53.746;9.970;2023-12-28T05:11:26;4.50;;;2.08;;
80748;SDS011;70145;53.746;9.970;2023-12-28T05:13:51;4.43;;;1.80;;
80748;SDS011;70145;53.746;9.970;2023-12-28T05:16:17;2.53;;;1.75;;
80748;SDS011;70145;53.746;9.970;2023-12-28T05:18:42;2.60;;;1.60;;
80748;SDS011;70145;53.746;9.970;2023-12-28T05:21:07;2.85;;;1.65;;
80748;SDS011;70145;53.746;9.970;2023-12-28T05:23:33;2.63;;;1.70;;
80748;SDS011;70145;53.746;9.970;2023-12-28T05:25:58;3.53;;;1.40;;
80748;SDS011;70145;53.746;9.970;2023-12-28T05:28:23;3.37;;;1.60;;
80748;SDS011;70145;53.746;9.970;2023-12-28T05:30:48;3.63;;;1.60;;
80748;SDS011;70145;53.746;9.970;2023-12-28T05:33:14;4.85;;;1.40;;
80748;SDS011;70145;53.746;9.970;2023-12-28T05:35:39;2.30;;;1.50;;
80748;SDS011;70145;53.746;9.970;2023-12-28T05:38:04;4.25;;;1.60;;
80748;SDS011;70145;53.746;9.970;2023-12-28T05:40:30;3.43;;;1.53;;
80748;SDS011;70145;53.746;9.970;2023-12-28T05:42:55;3.80;;;2.00;;
80748;SDS011;70145;53.746;9.970;2023-12-28T05:45:20;2.08;;;1.38;;
80748;SDS011;70145;53.746;9.970;2023-12-28T05:47:46;4.57;;;1.70;;
80748;SDS011;70145;53.746;9.970;2023-12-28T05:50:11;4.25;;;1.88;;
80748;SDS011;70145;53.746;9.970;2023-12-28T05:52:37;3.45;;;1.55;;
80748;SDS011;70145;53.746;9.970;2023-12-28T05:55:03;2.80;;;1.48;;
80748;SDS011;70145;53.746;9.970;2023-12-28T05:57:29;3.92;;;1.67;;
80748;SDS011;70145;53.746;9.970;2023-12-28T05:59:56;4.90;;;2.53;;
80748;SDS011;70145;53.746;9.970;2023-12-28T06:02:21;3.38;;;1.50;;
80748;SDS011;70145;53.746;9.970;2023-12-28T06:04:46;3.42;;;1.52;;
80748;SDS011;70145;53.746;9.970;2023-12-28T06:07:12;3.10;;;1.85;;
80748;SDS011;70145;53.746;9.970;2023-12-28T06:09:37;3.60;;;1.83;;
80748;SDS011;70145;53.746;9.970;2023-12-28T06:12:04;6.72;;;1.80;;
80748;SDS011;70145;53.746;9.970;2023-12-28T06:14:29;3.67;;;1.67;;
80748;SDS011;70145;53.746;9.970;2023-12-28T06:16:55;2.40;;;1.80;;
80748;SDS011;70145;53.746;9.970;2023-12-28T06:19:20;3.22;;;1.73;;
80748;SDS011;70145;53.746;9.970;2023-12-28T06:21:47;4.78;;;1.80;;
80748;SDS011;70145;53.746;9.970;2023-12-28T06:24:13;2.90;;;1.40;;
80748;SDS011;70145;53.746;9.970;2023-12-28T06:26:39;3.55;;;1.65;;
80748;SDS011;70145;53.746;9.970;2023-12-28T06:29:08;3.75;;;1.50;;
80748;SDS011;70145;53.746;9.970;2023-12-28T06:31:35;4.38;;;1.65;;
80748;SDS011;70145;53.746;9.970;2023-12-28T06:34:04;5.25;;;1.55;;
80748;SDS011;70145;53.746;9.970;2023-12-28T06:36:31;2.58;;;1.27;;
80748;SDS011;70145;53.746;9.970;2023-12-28T06:38:57;4.28;;;1.73;;
80748;SDS011;70145;53.746;9.970;2023-12-28T06:41:23;4.30;;;1.95;;
80748;SDS011;70145;53.746;9.970;2023-12-28T06:43:49;3.25;;;2.03;;
80748;SDS011;70145;53.746;9.970;2023-12-28T06:46:14;5.75;;;2.15;;
80748;SDS011;70145;53.746;9.970;2023-12-28T06:48:40;4.03;;;1.52;;
80748;SDS011;70145;53.746;9.970;2023-12-28T06:51:23;3.67;;;1.63;;
80748;SDS011;70145;53.746;9.970;2023-12-28T06:53:48;2.92;;;1.60;;
80748;SDS011;70145;53.746;9.970;2023-12-28T06:56:14;4.15;;;1.88;;
80748;SDS011;70145;53.746;9.970;2023-12-28T06:58:40;2.70;;;1.70;;
80748;SDS011;70145;53.746;9.970;2023-12-28T07:01:06;2.92;;;1.42;;
80748;SDS011;70145;53.746;9.970;2023-12-28T07:03:31;2.45;;;1.90;;
80748;SDS011;70145;53.746;9.970;2023-12-28T07:06:00;3.40;;;1.20;;
80748;SDS011;70145;53.746;9.970;2023-12-28T07:08:26;5.93;;;2.95;;
80748;SDS011;70145;53.746;9.970;2023-12-28T07:10:51;5.07;;;2.17;;
80748;SDS011;70145;53.746;9.970;2023-12-28T07:13:17;3.78;;;2.13;;
80748;SDS011;70145;53.746;9.970;2023-12-28T07:15:42;4.13;;;1.83;;
80748;SDS011;70145;53.746;9.970;2023-12-28T07:18:08;3.35;;;1.67;;
80748;SDS011;70145;53.746;9.970;2023-12-28T07:20:33;3.05;;;1.55;;
80748;SDS011;70145;53.746;9.970;2023-12-28T07:22:59;6.18;;;1.90;;
80748;SDS011;70145;53.746;9.970;2023-12-28T07:25:24;7.35;;;1.80;;
80748;SDS011;70145;53.746;9.970;2023-12-28T07:27:49;5.63;;;1.98;;
80748;SDS011;70145;53.746;9.970;2023-12-28T07:30:15;3.55;;;1.52;;
80748;SDS011;70145;53.746;9.970;2023-12-28T07:32:41;4.82;;;1.77;;
80748;SDS011;70145;53.746;9.970;2023-12-28T07:35:07;4.60;;;1.50;;
80748;SDS011;70145;53.746;9.970;2023-12-28T07:37:32;2.63;;;1.80;;
80748;SDS011;70145;53.746;9.970;2023-12-28T07:39:58;3.63;;;1.58;;
80748;SDS011;70145;53.746;9.970;2023-12-28T07:42:23;3.83;;;1.42;;
80748;SDS011;70145;53.746;9.970;2023-12-28T07:44:48;3.50;;;1.30;;
80748;SDS011;70145;53.746;9.970;2023-12-28T07:47:14;5.50;;;2.00;;
80748;SDS011;70145;53.746;9.970;2023-12-28T07:49:40;4.47;;;1.50;;
80748;SDS011;70145;53.746;9.970;2023-12-28T07:52:05;2.80;;;1.50;;
80748;SDS011;70145;53.746;9.970;2023-12-28T07:54:30;4.28;;;1.77;;
80748;SDS011;70145;53.746;9.970;2023-12-28T07:56:56;3.42;;;1.17;;
80748;SDS011;70145;53.746;9.970;2023-12-28T07:59:21;5.28;;;2.60;;
80748;SDS011;70145;53.746;9.970;2023-12-28T08:01:47;6.28;;;1.90;;
80748;SDS011;70145;53.746;9.970;2023-12-28T08:04:12;3.57;;;1.53;;
80748;SDS011;70145;53.746;9.970;2023-12-28T08:06:37;4.13;;;1.50;;
80748;SDS011;70145;53.746;9.970;2023-12-28T08:09:02;4.27;;;1.87;;
80748;SDS011;70145;53.746;9.970;2023-12-28T08:11:28;2.73;;;1.63;;
80748;SDS011;70145;53.746;9.970;2023-12-28T08:13:53;4.63;;;1.45;;
80748;SDS011;70145;53.746;9.970;2023-12-28T08:16:19;4.50;;;1.80;;
80748;SDS011;70145;53.746;9.970;2023-12-28T08:18:44;4.28;;;1.45;;
80748;SDS011;70145;53.746;9.970;2023-12-28T08:21:10;5.03;;;1.85;;
80748;SDS011;70145;53.746;9.970;2023-12-28T08:23:35;3.95;;;1.23;;
80748;SDS011;70145;53.746;9.970;2023-12-28T08:26:01;2.80;;;1.00;;
80748;SDS011;70145;53.746;9.970;2023-12-28T08:28:26;3.97;;;1.48;;
80748;SDS011;70145;53.746;9.970;2023-12-28T08:30:51;4.55;;;1.65;;
80748;SDS011;70145;53.746;9.970;2023-12-28T08:33:17;6.30;;;2.00;;
80748;SDS011;70145;53.746;9.970;2023-12-28T08:35:42;5.00;;;1.40;;
80748;SDS011;70145;53.746;9.970;2023-12-28T08:38:07;4.57;;;1.27;;
80748;SDS011;70145;53.746;9.970;2023-12-28T08:40:33;5.97;;;1.73;;
80748;SDS011;70145;53.746;9.970;2023-12-28T08:42:59;6.00;;;3.45;;
80748;SDS011;70145;53.746;9.970;2023-12-28T08:45:24;4.33;;;1.50;;
80748;SDS011;70145;53.746;9.970;2023-12-28T08:47:50;6.18;;;1.50;;
80748;SDS011;70145;53.746;9.970;2023-12-28T08:50:15;5.27;;;1.93;;
80748;SDS011;70145;53.746;9.970;2023-12-28T08:52:40;2.80;;;1.15;;
80748;SDS011;70145;53.746;9.970;2023-12-28T08:55:05;5.80;;;1.60;;
80748;SDS011;70145;53.746;9.970;2023-12-28T08:57:31;6.57;;;1.50;;
80748;SDS011;70145;53.746;9.970;2023-12-28T08:59:57;3.97;;;1.48;;
80748;SDS011;70145;53.746;9.970;2023-12-28T09:02:27;4.07;;;1.30;;
80748;SDS011;70145;53.746;9.970;2023-12-28T09:04:52;6.55;;;1.90;;
80748;SDS011;70145;53.746;9.970;2023-12-28T09:07:18;3.20;;;1.52;;
80748;SDS011;70145;53.746;9.970;2023-12-28T09:09:44;3.22;;;1.20;;
80748;SDS011;70145;53.746;9.970;2023-12-28T09:12:09;4.43;;;1.40;;
80748;SDS011;70145;53.746;9.970;2023-12-28T09:14:35;4.85;;;1.42;;
80748;SDS011;70145;53.746;9.970;2023-12-28T09:17:01;5.53;;;1.40;;
80748;SDS011;70145;53.746;9.970;2023-12-28T09:19:26;7.25;;;1.85;;
80748;SDS011;70145;53.746;9.970;2023-12-28T09:21:52;5.82;;;1.30;;
80748;SDS011;70145;53.746;9.970;2023-12-28T09:24:17;8.02;;;1.77;;
80748;SDS011;70145;53.746;9.970;2023-12-28T09:26:43;3.05;;;1.00;;
80748;SDS011;70145;53.746;9.970;2023-12-28T09:29:08;6.05;;;1.23;;
80748;SDS011;70145;53.746;9.970;2023-12-28T09:31:34;3.78;;;1.13;;
80748;SDS011;70145;53.746;9.970;2023-12-28T09:33:59;3.87;;;1.23;;
80748;SDS011;70145;53.746;9.970;2023-12-28T09:36:24;6.90;;;1.30;;
80748;SDS011;70145;53.746;9.970;2023-12-28T09:38:50;5.50;;;1.47;;
80748;SDS011;70145;53.746;9.970;2023-12-28T09:41:16;5.40;;;1.40;;
80748;SDS011;70145;53.746;9.970;2023-12-28T09:43:50;8.57;;;1.67;;
80748;SDS011;70145;53.746;9.970;2023-12-28T09:46:19;6.03;;;1.25;;
80748;SDS011;70145;53.746;9.970;2023-12-28T09:48:45;5.75;;;1.73;;
80748;SDS011;70145;53.746;9.970;2023-12-28T09:51:11;4.65;;;1.33;;
80748;SDS011;70145;53.746;9.970;2023-12-28T09:53:36;5.53;;;1.00;;
80748;SDS011;70145;53.746;9.970;2023-12-28T09:56:02;5.93;;;1.27;;
80748;SDS011;70145;53.746;9.970;2023-12-28T09:58:28;5.32;;;1.02;;
80748;SDS011;70145;53.746;9.970;2023-12-28T10:00:56;7.88;;;1.20;;
80748;SDS011;70145;53.746;9.970;2023-12-28T10:03:21;5.82;;;1.08;;
80748;SDS011;70145;53.746;9.970;2023-12-28T10:05:47;3.53;;;0.90;;
80748;SDS011;70145;53.746;9.970;2023-12-28T10:08:13;6.28;;;1.40;;
80748;SDS011;70145;53.746;9.970;2023-12-28T10:10:39;4.85;;;1.20;;
80748;SDS011;70145;53.746;9.970;2023-12-28T10:13:06;7.93;;;1.13;;
80748;SDS011;70145;53.746;9.970;2023-12-28T10:15:36;5.57;;;1.00;;
80748;SDS011;70145;53.746;9.970;2023-12-28T10:18:02;4.85;;;1.27;;
80748;SDS011;70145;53.746;9.970;2023-12-28T10:20:28;4.15;;;1.30;;
80748;SDS011;70145;53.746;9.970;2023-12-28T10:22:54;3.60;;;1.00;;
80748;SDS011;70145;53.746;9.970;2023-12-28T10:25:20;4.78;;;1.25;;
80748;SDS011;70145;53.746;9.970;2023-12-28T10:27:45;8.20;;;1.30;;
80748;SDS011;70145;53.746;9.970;2023-12-28T10:30:10;6.20;;;1.13;;
80748;SDS011;70145;53.746;9.970;2023-12-28T10:32:39;4.32;;;0.98;;
80748;SDS011;70145;53.746;9.970;2023-12-28T10:35:05;7.25;;;1.42;;
80748;SDS011;70145;53.746;9.970;2023-12-28T10:37:31;4.88;;;1.13;;
80748;SDS011;70145;53.746;9.970;2023-12-28T10:39:57;4.60;;;1.17;;
80748;SDS011;70145;53.746;9.970;2023-12-28T10:42:28;11.05;;;1.77;;
80748;SDS011;70145;53.746;9.970;2023-12-28T10:45:01;4.40;;;1.08;;
80748;SDS011;70145;53.746;9.970;2023-12-28T10:47:33;4.72;;;1.10;;
80748;SDS011;70145;53.746;9.970;2023-12-28T10:50:03;6.78;;;1.50;;
80748;SDS011;70145;53.746;9.970;2023-12-28T10:52:30;7.55;;;0.93;;
80748;SDS011;70145;53.746;9.970;2023-12-28T10:55:00;8.27;;;1.10;;
80748;SDS011;70145;53.746;9.970;2023-12-28T10:57:53;7.10;;;1.25;;
80748;SDS011;70145;53.746;9.970;2023-12-28T11:00:30;8.50;;;1.33;;
80748;SDS011;70145;53.746;9.970;2023-12-28T11:03:01;4.88;;;0.98;;
80748;SDS011;70145;53.746;9.970;2023-12-28T11:05:28;6.13;;;1.00;;
80748;SDS011;70145;53.746;9.970;2023-12-28T11:07:54;6.25;;;1.35;;
80748;SDS011;70145;53.746;9.970;2023-12-28T11:10:23;3.78;;;1.23;;
80748;SDS011;70145;53.746;9.970;2023-12-28T11:12:53;8.00;;;1.52;;
80748;SDS011;70145;53.746;9.970;2023-12-28T11:15:18;4.10;;;1.48;;
80748;SDS011;70145;53.746;9.970;2023-12-28T11:17:44;4.97;;;1.50;;
80748;SDS011;70145;53.746;9.970;2023-12-28T11:20:09;10.02;;;2.28;;
80748;SDS011;70145;53.746;9.970;2023-12-28T11:22:36;4.65;;;1.25;;
80748;SDS011;70145;53.746;9.970;2023-12-28T11:25:03;9.50;;;2.40;;
80748;SDS011;70145;53.746;9.970;2023-12-28T11:27:35;7.88;;;2.28;;
80748;SDS011;70145;53.746;9.970;2023-12-28T11:30:01;6.07;;;1.30;;
80748;SDS011;70145;53.746;9.970;2023-12-28T11:32:31;7.05;;;1.13;;
80748;SDS011;70145;53.746;9.970;2023-12-28T11:34:58;7.18;;;1.95;;
80748;SDS011;70145;53.746;9.970;2023-12-28T11:37:24;7.43;;;1.75;;
80748;SDS011;70145;53.746;9.970;2023-12-28T11:39:51;8.43;;;1.60;;
80748;SDS011;70145;53.746;9.970;2023-12-28T11:42:20;5.55;;;1.30;;
80748;SDS011;70145;53.746;9.970;2023-12-28T11:44:48;7.95;;;1.67;;
80748;SDS011;70145;53.746;9.970;2023-12-28T11:47:23;7.20;;;1.55;;
80748;SDS011;70145;53.746;9.970;2023-12-28T11:49:49;7.15;;;1.60;;
80748;SDS011;70145;53.746;9.970;2023-12-28T11:52:29;8.38;;;2.00;;
80748;SDS011;70145;53.746;9.970;2023-12-28T11:54:56;9.20;;;1.85;;
80748;SDS011;70145;53.746;9.970;2023-12-28T11:57:21;10.25;;;1.55;;
80748;SDS011;70145;53.746;9.970;2023-12-28T11:59:57;9.73;;;1.60;;
80748;SDS011;70145;53.746;9.970;2023-12-28T12:02:24;10.80;;;1.85;;
80748;SDS011;70145;53.746;9.970;2023-12-28T12:04:50;6.43;;;1.73;;
80748;SDS011;70145;53.746;9.970;2023-12-28T12:07:16;7.93;;;1.85;;
80748;SDS011;70145;53.746;9.970;2023-12-28T12:09:41;14.93;;;2.22;;
80748;SDS011;70145;53.746;9.970;2023-12-28T12:12:07;6.45;;;1.33;;
80748;SDS011;70145;53.746;9.970;2023-12-28T12:14:33;8.77;;;2.20;;
80748;SDS011;70145;53.746;9.970;2023-12-28T12:16:59;9.02;;;1.65;;
80748;SDS011;70145;53.746;9.970;2023-12-28T12:19:25;5.30;;;1.63;;
80748;SDS011;70145;53.746;9.970;2023-12-28T12:21:51;8.85;;;1.48;;
80748;SDS011;70145;53.746;9.970;2023-12-28T12:24:18;11.30;;;1.90;;
80748;SDS011;70145;53.746;9.970;2023-12-28T12:29:45;12.60;;;1.80;;
80748;SDS011;70145;53.746;9.970;2023-12-28T12:32:10;7.22;;;1.23;;
80748;SDS011;70145;53.746;9.970;2023-12-28T12:34:36;4.85;;;1.35;;
80748;SDS011;70145;53.746;9.970;2023-12-28T12:37:03;7.88;;;1.42;;
80748;SDS011;70145;53.746;9.970;2023-12-28T12:39:29;8.35;;;2.00;;
80748;SDS011;70145;53.746;9.970;2023-12-28T12:41:54;4.95;;;1.20;;
80748;SDS011;70145;53.746;9.970;2023-12-28T12:44:21;9.73;;;2.03;;
80748;SDS011;70145;53.746;9.970;2023-12-28T12:46:47;8.98;;;1.55;;
80748;SDS011;70145;53.746;9.970;2023-12-28T12:49:13;10.27;;;2.72;;
80748;SDS011;70145;53.746;9.970;2023-12-28T12:51:38;8.85;;;1.52;;
80748;SDS011;70145;53.746;9.970;2023-12-28T12:54:05;6.95;;;1.90;;
80748;SDS011;70145;53.746;9.970;2023-12-28T12:56:34;9.35;;;1.92;;
80748;SDS011;70145;53.746;9.970;2023-12-28T12:58:59;13.23;;;1.70;;
80748;SDS011;70145;53.746;9.970;2023-12-28T13:01:25;7.15;;;1.67;;
80748;SDS011;70145;53.746;9.970;2023-12-28T13:03:50;9.18;;;1.60;;
80748;SDS011;70145;53.746;9.970;2023-12-28T13:06:16;8.10;;;1.17;;
80748;SDS011;70145;53.746;9.970;2023-12-28T13:08:42;7.35;;;1.58;;
80748;SDS011;70145;53.746;9.970;2023-12-28T13:11:08;6.40;;;1.55;;
80748;SDS011;70145;53.746;9.970;2023-12-28T13:13:34;9.10;;;1.95;;
80748;SDS011;70145;53.746;9.970;2023-12-28T13:16:00;7.93;;;1.80;;
80748;SDS011;70145;53.746;9.970;2023-12-28T13:18:25;7.70;;;1.88;;
80748;SDS011;70145;53.746;9.970;2023-12-28T13:20:51;11.70;;;1.90;;
80748;SDS011;70145;53.746;9.970;2023-12-28T13:23:16;7.70;;;1.92;;
80748;SDS011;70145;53.746;9.970;2023-12-28T13:25:42;7.97;;;2.40;;
80748;SDS011;70145;53.746;9.970;2023-12-28T13:28:08;9.52;;;2.25;;
80748;SDS011;70145;53.746;9.970;2023-12-28T13:30:34;10.18;;;1.35;;
80748;SDS011;70145;53.746;9.970;2023-12-28T13:33:01;7.88;;;1.73;;
80748;SDS011;70145;53.746;9.970;2023-12-28T13:35:27;9.32;;;1.98;;
80748;SDS011;70145;53.746;9.970;2023-12-28T13:37:53;4.60;;;1.08;;
80748;SDS011;70145;53.746;9.970;2023-12-28T13:40:18;5.80;;;1.85;;
80748;SDS011;70145;53.746;9.970;2023-12-28T13:42:43;6.85;;;1.20;;
80748;SDS011;70145;53.746;9.970;2023-12-28T13:45:09;6.18;;;1.58;;
80748;SDS011;70145;53.746;9.970;2023-12-28T13:47:34;6.75;;;1.33;;
80748;SDS011;70145;53.746;9.970;2023-12-28T13:49:59;7.07;;;1.53;;
80748;SDS011;70145;53.746;9.970;2023-12-28T13:52:25;7.47;;;1.30;;
80748;SDS011;70145;53.746;9.970;2023-12-28T13:54:50;9.27;;;1.05;;
80748;SDS011;70145;53.746;9.970;2023-12-28T13:57:16;6.82;;;1.25;;
80748;SDS011;70145;53.746;9.970;2023-12-28T13:59:41;6.68;;;1.38;;
80748;SDS011;70145;53.746;9.970;2023-12-28T14:02:07;7.20;;;1.83;;
80748;SDS011;70145;53.746;9.970;2023-12-28T14:04:32;9.30;;;1.70;;
80748;SDS011;70145;53.746;9.970;2023-12-28T14:06:57;7.70;;;1.60;;
80748;SDS011;70145;53.746;9.970;2023-12-28T14:09:23;8.23;;;2.33;;
80748;SDS011;70145;53.746;9.970;2023-12-28T14:11:48;10.70;;;2.20;;
80748;SDS011;70145;53.746;9.970;2023-12-28T14:14:13;6.88;;;1.35;;
80748;SDS011;70145;53.746;9.970;2023-12-28T14:16:39;7.05;;;1.70;;
80748;SDS011;70145;53.746;9.970;2023-12-28T14:19:05;9.32;;;1.92;;
80748;SDS011;70145;53.746;9.970;2023-12-28T14:21:34;12.45;;;1.58;;
80748;SDS011;70145;53.746;9.970;2023-12-28T14:24:03;5.63;;;1.30;;
80748;SDS011;70145;53.746;9.970;2023-12-28T14:26:29;7.70;;;1.83;;
80748;SDS011;70145;53.746;9.970;2023-12-28T14:28:57;8.55;;;1.20;;
80748;SDS011;70145;53.746;9.970;2023-12-28T14:31:24;12.15;;;1.90;;
80748;SDS011;70145;53.746;9.970;2023-12-28T14:33:50;8.55;;;1.48;;
80748;SDS011;70145;53.746;9.970;2023-12-28T14:36:32;6.45;;;1.83;;
80748;SDS011;70145;53.746;9.970;2023-12-28T14:38:59;7.22;;;1.70;;
80748;SDS011;70145;53.746;9.970;2023-12-28T14:41:25;9.20;;;2.65;;
80748;SDS011;70145;53.746;9.970;2023-12-28T14:43:50;8.15;;;1.27;;
80748;SDS011;70145;53.746;9.970;2023-12-28T14:46:16;5.97;;;1.60;;
80748;SDS011;70145;53.746;9.970;2023-12-28T14:48:41;5.68;;;2.83;;
80748;SDS011;70145;53.746;9.970;2023-12-28T14:51:08;8.60;;;1.40;;
80748;SDS011;70145;53.746;9.970;2023-12-28T14:53:33;10.90;;;2.17;;
80748;SDS011;70145;53.746;9.970;2023-12-28T14:55:58;7.03;;;1.83;;
80748;SDS011;70145;53.746;9.970;2023-12-28T14:58:25;9.70;;;1.70;;